sensor_id;sensor_type;location;lat;lon;timestamp;P1;durP1;ratioP1;P2;durP2;ratioP2
30036;SDS011;36325;51.512;-0.382;2023-08-31T00:01:46;11.88;;;3.47;;
30036;SDS011;36325;51.512;-0.382;2023-08-31T00:04:15;11.70;;;3.70;;
30036;SDS011;36325;51.512;-0.382;2023-08-31T00:06:42;8.13;;;3.50;;
30036;SDS011;36325;51.512;-0.382;2023-08-31T00:09:11;13.60;;;4.30;;
30036;SDS011;36325;51.512;-0.382;2023-08-31T00:11:39;16.25;;;6.32;;
30036;SDS011;36325;51.512;-0.382;2023-08-31T00:14:07;16.48;;;5.68;;
30036;SDS011;36325;51.512;-0.382;2023-08-31T00:16:37;14.88;;;5.90;;
30036;SDS011;36325;51.512;-0.382;2023-08-31T00:19:04;16.33;;;5.85;;
30036;SDS011;36325;51.512;-0.382;2023-08-31T00:21:31;11.98;;;5.60;;
30036;SDS011;36325;51.512;-0.382;2023-08-31T00:24:00;12.05;;;4.20;;
30036;SDS011;36325;51.512;-0.382;2023-08-31T00:26:27;14.60;;;4.90;;
30036;SDS011;36325;51.512;-0.382;2023-08-31T00:28:57;12.55;;;4.85;;
30036;SDS011;36325;51.512;-0.382;2023-08-31T00:31:25;10.38;;;3.65;;
30036;SDS011;36325;51.512;-0.382;2023-08-31T00:33:56;12.32;;;4.78;;
30036;SDS011;36325;51.512;-0.382;2023-08-31T00:36:24;8.80;;;4.03;;
30036;SDS011;36325;51.512;-0.382;2023-08-31T00:38:52;14.32;;;3.78;;
30036;SDS011;36325;51.512;-0.382;2023-08-31T00:41:19;13.20;;;4.13;;
30036;SDS011;36325;51.512;-0.382;2023-08-31T00:43:46;16.35;;;3.72;;
30036;SDS011;36325;51.512;-0.382;2023-08-31T00:46:14;8.90;;;4.30;;
30036;SDS011;36325;51.512;-0.382;2023-08-31T00:48:41;8.02;;;3.70;;
30036;SDS011;36325;51.512;-0.382;2023-08-31T00:51:09;12.95;;;3.78;;
30036;SDS011;36325;51.512;-0.382;2023-08-31T00:53:37;10.18;;;3.15;;
30036;SDS011;36325;51.512;-0.382;2023-08-31T00:56:05;8.98;;;3.45;;
30036;SDS011;36325;51.512;-0.382;2023-08-31T00:58:32;10.05;;;3.72;;
30036;SDS011;36325;51.512;-0.382;2023-08-31T01:01:06;11.77;;;3.90;;
30036;SDS011;36325;51.512;-0.382;2023-08-31T01:06:17;14.23;;;3.28;;
30036;SDS011;36325;51.512;-0.382;2023-08-31T01:08:58;8.50;;;3.30;;
30036;SDS011;36325;51.512;-0.382;2023-08-31T01:11:43;11.40;;;3.10;;
30036;SDS011;36325;51.512;-0.382;2023-08-31T01:14:16;12.35;;;4.10;;
30036;SDS011;36325;51.512;-0.382;2023-08-31T01:16:47;7.95;;;3.38;;
30036;SDS011;36325;51.512;-0.382;2023-08-31T01:19:29;7.22;;;3.45;;
30036;SDS011;36325;51.512;-0.382;2023-08-31T01:24:58;11.32;;;3.53;;
30036;SDS011;36325;51.512;-0.382;2023-08-31T01:27:31;8.10;;;3.08;;
30036;SDS011;36325;51.512;-0.382;2023-08-31T01:29:58;13.35;;;4.13;;
30036;SDS011;36325;51.512;-0.382;2023-08-31T01:32:26;10.50;;;3.60;;
30036;SDS011;36325;51.512;-0.382;2023-08-31T01:34:53;12.18;;;3.60;;
30036;SDS011;36325;51.512;-0.382;2023-08-31T01:37:26;8.73;;;3.80;;
30036;SDS011;36325;51.512;-0.382;2023-08-31T01:40:11;10.93;;;4.22;;
30036;SDS011;36325;51.512;-0.382;2023-08-31T01:42:46;10.85;;;3.70;;
30036;SDS011;36325;51.512;-0.382;2023-08-31T01:45:14;12.63;;;3.97;;
30036;SDS011;36325;51.512;-0.382;2023-08-31T01:47:47;9.57;;;3.65;;
30036;SDS011;36325;51.512;-0.382;2023-08-31T01:50:17;7.93;;;3.35;;
30036;SDS011;36325;51.512;-0.382;2023-08-31T01:52:44;12.55;;;3.75;;
30036;SDS011;36325;51.512;-0.382;2023-08-31T01:55:12;9.98;;;3.28;;
30036;SDS011;36325;51.512;-0.382;2023-08-31T01:57:42;12.40;;;3.45;;
30036;SDS011;36325;51.512;-0.382;2023-08-31T02:00:17;15.80;;;3.45;;
30036;SDS011;36325;51.512;-0.382;2023-08-31T02:02:46;12.40;;;3.17;;
30036;SDS011;36325;51.512;-0.382;2023-08-31T02:05:14;8.63;;;2.83;;
30036;SDS011;36325;51.512;-0.382;2023-08-31T02:07:41;10.68;;;3.05;;
30036;SDS011;36325;51.512;-0.382;2023-08-31T02:10:08;8.57;;;3.70;;
30036;SDS011;36325;51.512;-0.382;2023-08-31T02:12:36;19.42;;;4.32;;
30036;SDS011;36325;51.512;-0.382;2023-08-31T02:15:04;6.32;;;2.85;;
30036;SDS011;36325;51.512;-0.382;2023-08-31T02:17:35;8.35;;;3.42;;
30036;SDS011;36325;51.512;-0.382;2023-08-31T02:20:03;10.98;;;3.45;;
30036;SDS011;36325;51.512;-0.382;2023-08-31T02:22:34;14.27;;;3.60;;
30036;SDS011;36325;51.512;-0.382;2023-08-31T02:25:02;8.43;;;3.38;;
30036;SDS011;36325;51.512;-0.382;2023-08-31T02:27:29;14.00;;;3.83;;
30036;SDS011;36325;51.512;-0.382;2023-08-31T02:29:57;16.80;;;5.47;;
30036;SDS011;36325;51.512;-0.382;2023-08-31T02:32:26;9.25;;;4.18;;
30036;SDS011;36325;51.512;-0.382;2023-08-31T02:34:53;9.18;;;3.72;;
30036;SDS011;36325;51.512;-0.382;2023-08-31T02:37:20;10.00;;;4.40;;
30036;SDS011;36325;51.512;-0.382;2023-08-31T02:39:49;13.43;;;4.88;;
30036;SDS011;36325;51.512;-0.382;2023-08-31T02:42:16;12.48;;;4.25;;
30036;SDS011;36325;51.512;-0.382;2023-08-31T02:44:45;8.80;;;4.00;;
30036;SDS011;36325;51.512;-0.382;2023-08-31T02:47:12;8.20;;;3.55;;
30036;SDS011;36325;51.512;-0.382;2023-08-31T02:49:40;8.68;;;3.55;;
30036;SDS011;36325;51.512;-0.382;2023-08-31T02:52:07;11.27;;;3.67;;
30036;SDS011;36325;51.512;-0.382;2023-08-31T02:54:35;13.55;;;3.50;;
30036;SDS011;36325;51.512;-0.382;2023-08-31T02:57:02;10.60;;;3.72;;
30036;SDS011;36325;51.512;-0.382;2023-08-31T02:59:29;9.15;;;3.20;;
30036;SDS011;36325;51.512;-0.382;2023-08-31T03:01:57;10.60;;;3.80;;
30036;SDS011;36325;51.512;-0.382;2023-08-31T03:04:24;12.80;;;3.90;;
30036;SDS011;36325;51.512;-0.382;2023-08-31T03:06:52;15.18;;;3.72;;
30036;SDS011;36325;51.512;-0.382;2023-08-31T03:09:19;8.50;;;3.95;;
30036;SDS011;36325;51.512;-0.382;2023-08-31T03:11:47;11.63;;;3.58;;
30036;SDS011;36325;51.512;-0.382;2023-08-31T03:14:14;11.48;;;3.45;;
30036;SDS011;36325;51.512;-0.382;2023-08-31T03:16:42;12.25;;;3.42;;
30036;SDS011;36325;51.512;-0.382;2023-08-31T03:19:09;9.85;;;3.75;;
30036;SDS011;36325;51.512;-0.382;2023-08-31T03:21:36;6.63;;;3.28;;
30036;SDS011;36325;51.512;-0.382;2023-08-31T03:24:03;6.78;;;3.15;;
30036;SDS011;36325;51.512;-0.382;2023-08-31T03:26:31;9.23;;;2.78;;
30036;SDS011;36325;51.512;-0.382;2023-08-31T03:29:02;7.05;;;3.08;;
30036;SDS011;36325;51.512;-0.382;2023-08-31T03:31:30;8.65;;;2.97;;
30036;SDS011;36325;51.512;-0.382;2023-08-31T03:33:58;12.00;;;3.47;;
30036;SDS011;36325;51.512;-0.382;2023-08-31T03:36:26;8.60;;;3.50;;
30036;SDS011;36325;51.512;-0.382;2023-08-31T03:38:53;11.88;;;3.78;;
30036;SDS011;36325;51.512;-0.382;2023-08-31T03:41:21;10.10;;;3.75;;
30036;SDS011;36325;51.512;-0.382;2023-08-31T03:43:48;10.93;;;3.80;;
30036;SDS011;36325;51.512;-0.382;2023-08-31T03:46:21;12.25;;;4.57;;
30036;SDS011;36325;51.512;-0.382;2023-08-31T03:48:48;10.27;;;3.15;;
30036;SDS011;36325;51.512;-0.382;2023-08-31T03:51:17;13.52;;;4.10;;
30036;SDS011;36325;51.512;-0.382;2023-08-31T03:53:44;6.05;;;3.28;;
30036;SDS011;36325;51.512;-0.382;2023-08-31T03:56:12;10.27;;;3.50;;
30036;SDS011;36325;51.512;-0.382;2023-08-31T03:58:41;12.77;;;3.83;;
30036;SDS011;36325;51.512;-0.382;2023-08-31T04:01:10;9.13;;;3.60;;
30036;SDS011;36325;51.512;-0.382;2023-08-31T04:03:38;7.82;;;3.25;;
30036;SDS011;36325;51.512;-0.382;2023-08-31T04:06:05;9.52;;;3.35;;
30036;SDS011;36325;51.512;-0.382;2023-08-31T04:08:32;13.75;;;3.20;;
30036;SDS011;36325;51.512;-0.382;2023-08-31T04:11:03;12.77;;;3.78;;
30036;SDS011;36325;51.512;-0.382;2023-08-31T04:13:31;12.05;;;3.05;;
30036;SDS011;36325;51.512;-0.382;2023-08-31T04:16:05;12.30;;;4.10;;
30036;SDS011;36325;51.512;-0.382;2023-08-31T04:18:32;12.82;;;3.60;;
30036;SDS011;36325;51.512;-0.382;2023-08-31T04:20:59;10.13;;;3.83;;
30036;SDS011;36325;51.512;-0.382;2023-08-31T04:23:30;8.60;;;3.38;;
30036;SDS011;36325;51.512;-0.382;2023-08-31T04:25:57;5.97;;;3.25;;
30036;SDS011;36325;51.512;-0.382;2023-08-31T04:28:24;11.77;;;3.30;;
30036;SDS011;36325;51.512;-0.382;2023-08-31T04:30:52;11.18;;;4.50;;
30036;SDS011;36325;51.512;-0.382;2023-08-31T04:33:20;8.85;;;3.30;;
30036;SDS011;36325;51.512;-0.382;2023-08-31T04:35:48;13.32;;;3.55;;
30036;SDS011;36325;51.512;-0.382;2023-08-31T04:38:16;10.73;;;4.68;;
30036;SDS011;36325;51.512;-0.382;2023-08-31T04:40:43;8.30;;;3.67;;
30036;SDS011;36325;51.512;-0.382;2023-08-31T04:43:12;15.70;;;4.32;;
30036;SDS011;36325;51.512;-0.382;2023-08-31T04:45:40;7.65;;;3.45;;
30036;SDS011;36325;51.512;-0.382;2023-08-31T04:48:07;8.48;;;2.83;;
30036;SDS011;36325;51.512;-0.382;2023-08-31T04:50:35;10.68;;;3.55;;
30036;SDS011;36325;51.512;-0.382;2023-08-31T04:53:02;20.58;;;4.20;;
30036;SDS011;36325;51.512;-0.382;2023-08-31T04:55:31;14.93;;;3.72;;
30036;SDS011;36325;51.512;-0.382;2023-08-31T04:57:58;10.35;;;3.15;;
30036;SDS011;36325;51.512;-0.382;2023-08-31T05:00:26;9.00;;;3.60;;
30036;SDS011;36325;51.512;-0.382;2023-08-31T05:02:53;9.32;;;3.33;;
30036;SDS011;36325;51.512;-0.382;2023-08-31T05:05:21;13.15;;;4.05;;
30036;SDS011;36325;51.512;-0.382;2023-08-31T05:07:49;12.32;;;3.70;;
30036;SDS011;36325;51.512;-0.382;2023-08-31T05:10:16;13.52;;;3.50;;
30036;SDS011;36325;51.512;-0.382;2023-08-31T05:12:45;9.68;;;4.13;;
30036;SDS011;36325;51.512;-0.382;2023-08-31T05:15:12;10.65;;;3.33;;
30036;SDS011;36325;51.512;-0.382;2023-08-31T05:17:40;11.63;;;3.78;;
30036;SDS011;36325;51.512;-0.382;2023-08-31T05:20:07;7.72;;;2.80;;
30036;SDS011;36325;51.512;-0.382;2023-08-31T05:22:36;9.20;;;3.60;;
30036;SDS011;36325;51.512;-0.382;2023-08-31T05:25:04;10.02;;;3.65;;
30036;SDS011;36325;51.512;-0.382;2023-08-31T05:27:32;12.75;;;4.03;;
30036;SDS011;36325;51.512;-0.382;2023-08-31T05:30:00;13.57;;;4.25;;
30036;SDS011;36325;51.512;-0.382;2023-08-31T05:32:29;12.35;;;3.50;;
30036;SDS011;36325;51.512;-0.382;2023-08-31T05:34:57;9.38;;;3.58;;
30036;SDS011;36325;51.512;-0.382;2023-08-31T05:37:26;6.47;;;3.63;;
30036;SDS011;36325;51.512;-0.382;2023-08-31T05:40:01;6.75;;;3.78;;
30036;SDS011;36325;51.512;-0.382;2023-08-31T05:42:33;10.40;;;3.95;;
30036;SDS011;36325;51.512;-0.382;2023-08-31T05:45:01;12.23;;;4.72;;
30036;SDS011;36325;51.512;-0.382;2023-08-31T05:47:28;11.10;;;4.90;;
30036;SDS011;36325;51.512;-0.382;2023-08-31T05:49:56;7.22;;;4.35;;
30036;SDS011;36325;51.512;-0.382;2023-08-31T05:52:23;12.38;;;4.38;;
30036;SDS011;36325;51.512;-0.382;2023-08-31T05:54:57;10.57;;;3.92;;
30036;SDS011;36325;51.512;-0.382;2023-08-31T05:57:25;20.65;;;4.85;;
30036;SDS011;36325;51.512;-0.382;2023-08-31T05:59:55;11.85;;;4.22;;
30036;SDS011;36325;51.512;-0.382;2023-08-31T06:02:23;10.52;;;3.90;;
30036;SDS011;36325;51.512;-0.382;2023-08-31T06:04:50;11.07;;;4.80;;
30036;SDS011;36325;51.512;-0.382;2023-08-31T06:07:18;15.35;;;5.07;;
30036;SDS011;36325;51.512;-0.382;2023-08-31T06:09:46;15.80;;;5.10;;
30036;SDS011;36325;51.512;-0.382;2023-08-31T06:12:14;20.52;;;5.50;;
30036;SDS011;36325;51.512;-0.382;2023-08-31T06:14:41;13.70;;;4.15;;
30036;SDS011;36325;51.512;-0.382;2023-08-31T06:17:08;7.68;;;4.30;;
30036;SDS011;36325;51.512;-0.382;2023-08-31T06:19:41;32.10;;;5.88;;
30036;SDS011;36325;51.512;-0.382;2023-08-31T06:22:09;15.02;;;4.55;;
30036;SDS011;36325;51.512;-0.382;2023-08-31T06:24:37;17.73;;;4.78;;
30036;SDS011;36325;51.512;-0.382;2023-08-31T06:27:05;11.73;;;4.43;;
30036;SDS011;36325;51.512;-0.382;2023-08-31T06:29:33;10.50;;;4.57;;
30036;SDS011;36325;51.512;-0.382;2023-08-31T06:32:00;11.95;;;3.80;;
30036;SDS011;36325;51.512;-0.382;2023-08-31T06:34:28;11.68;;;4.22;;
30036;SDS011;36325;51.512;-0.382;2023-08-31T06:36:57;13.02;;;4.43;;
30036;SDS011;36325;51.512;-0.382;2023-08-31T06:39:25;21.08;;;4.68;;
30036;SDS011;36325;51.512;-0.382;2023-08-31T06:41:52;26.88;;;4.63;;
30036;SDS011;36325;51.512;-0.382;2023-08-31T06:44:28;11.77;;;4.32;;
30036;SDS011;36325;51.512;-0.382;2023-08-31T06:46:56;19.92;;;4.30;;
30036;SDS011;36325;51.512;-0.382;2023-08-31T06:49:24;12.40;;;4.25;;
30036;SDS011;36325;51.512;-0.382;2023-08-31T06:51:51;14.20;;;4.20;;
30036;SDS011;36325;51.512;-0.382;2023-08-31T06:54:21;6.32;;;3.67;;
30036;SDS011;36325;51.512;-0.382;2023-08-31T06:56:48;14.65;;;4.20;;
30036;SDS011;36325;51.512;-0.382;2023-08-31T06:59:15;12.35;;;4.25;;
30036;SDS011;36325;51.512;-0.382;2023-08-31T07:01:43;12.57;;;4.88;;
30036;SDS011;36325;51.512;-0.382;2023-08-31T07:04:10;10.35;;;4.00;;
30036;SDS011;36325;51.512;-0.382;2023-08-31T07:06:37;19.25;;;4.10;;
30036;SDS011;36325;51.512;-0.382;2023-08-31T07:09:05;9.50;;;4.88;;
30036;SDS011;36325;51.512;-0.382;2023-08-31T07:11:33;8.25;;;3.80;;
30036;SDS011;36325;51.512;-0.382;2023-08-31T07:14:01;36.17;;;6.40;;
30036;SDS011;36325;51.512;-0.382;2023-08-31T07:16:28;14.73;;;4.97;;
30036;SDS011;36325;51.512;-0.382;2023-08-31T07:18:55;22.13;;;5.13;;
30036;SDS011;36325;51.512;-0.382;2023-08-31T07:21:23;12.88;;;4.25;;
30036;SDS011;36325;51.512;-0.382;2023-08-31T07:23:50;15.32;;;4.60;;
30036;SDS011;36325;51.512;-0.382;2023-08-31T07:26:18;13.00;;;4.55;;
30036;SDS011;36325;51.512;-0.382;2023-08-31T07:28:46;13.93;;;5.60;;
30036;SDS011;36325;51.512;-0.382;2023-08-31T07:31:13;9.02;;;4.90;;
30036;SDS011;36325;51.512;-0.382;2023-08-31T07:33:42;16.55;;;4.78;;
30036;SDS011;36325;51.512;-0.382;2023-08-31T07:36:18;11.88;;;4.70;;
30036;SDS011;36325;51.512;-0.382;2023-08-31T07:38:45;9.48;;;4.53;;
30036;SDS011;36325;51.512;-0.382;2023-08-31T07:41:14;14.25;;;5.38;;
30036;SDS011;36325;51.512;-0.382;2023-08-31T07:43:41;9.07;;;4.45;;
30036;SDS011;36325;51.512;-0.382;2023-08-31T07:46:24;14.05;;;4.85;;
30036;SDS011;36325;51.512;-0.382;2023-08-31T07:48:51;12.65;;;4.55;;
30036;SDS011;36325;51.512;-0.382;2023-08-31T07:51:19;28.42;;;5.68;;
30036;SDS011;36325;51.512;-0.382;2023-08-31T07:53:49;53.35;;;6.97;;
30036;SDS011;36325;51.512;-0.382;2023-08-31T07:56:17;15.60;;;5.78;;
30036;SDS011;36325;51.512;-0.382;2023-08-31T07:58:44;10.73;;;3.78;;
30036;SDS011;36325;51.512;-0.382;2023-08-31T08:01:12;12.63;;;4.35;;
30036;SDS011;36325;51.512;-0.382;2023-08-31T08:03:40;7.70;;;3.53;;
30036;SDS011;36325;51.512;-0.382;2023-08-31T08:06:12;6.78;;;3.78;;
30036;SDS011;36325;51.512;-0.382;2023-08-31T08:08:41;11.10;;;3.90;;
30036;SDS011;36325;51.512;-0.382;2023-08-31T08:11:09;78.70;;;6.47;;
30036;SDS011;36325;51.512;-0.382;2023-08-31T08:13:36;16.70;;;4.05;;
30036;SDS011;36325;51.512;-0.382;2023-08-31T08:16:04;10.00;;;3.03;;
30036;SDS011;36325;51.512;-0.382;2023-08-31T08:18:31;10.23;;;4.07;;
30036;SDS011;36325;51.512;-0.382;2023-08-31T08:20:59;9.48;;;3.30;;
30036;SDS011;36325;51.512;-0.382;2023-08-31T08:23:28;16.85;;;4.13;;
30036;SDS011;36325;51.512;-0.382;2023-08-31T08:26:00;10.80;;;3.60;;
30036;SDS011;36325;51.512;-0.382;2023-08-31T08:28:53;10.55;;;3.35;;
30036;SDS011;36325;51.512;-0.382;2023-08-31T08:31:22;12.95;;;4.28;;
30036;SDS011;36325;51.512;-0.382;2023-08-31T08:33:56;17.77;;;3.42;;
30036;SDS011;36325;51.512;-0.382;2023-08-31T08:36:24;11.13;;;3.28;;
30036;SDS011;36325;51.512;-0.382;2023-08-31T08:38:51;10.40;;;3.72;;
30036;SDS011;36325;51.512;-0.382;2023-08-31T08:41:23;34.97;;;4.45;;
30036;SDS011;36325;51.512;-0.382;2023-08-31T08:43:51;19.27;;;4.13;;
30036;SDS011;36325;51.512;-0.382;2023-08-31T08:46:19;16.63;;;3.90;;
30036;SDS011;36325;51.512;-0.382;2023-08-31T08:48:49;14.30;;;3.47;;
30036;SDS011;36325;51.512;-0.382;2023-08-31T08:51:18;9.50;;;3.45;;
30036;SDS011;36325;51.512;-0.382;2023-08-31T08:53:45;11.43;;;3.25;;
30036;SDS011;36325;51.512;-0.382;2023-08-31T08:56:14;13.73;;;3.15;;
30036;SDS011;36325;51.512;-0.382;2023-08-31T08:58:43;7.97;;;3.58;;
30036;SDS011;36325;51.512;-0.382;2023-08-31T09:01:10;11.73;;;3.55;;
30036;SDS011;36325;51.512;-0.382;2023-08-31T09:03:38;11.25;;;4.28;;
30036;SDS011;36325;51.512;-0.382;2023-08-31T09:06:06;7.97;;;3.05;;
30036;SDS011;36325;51.512;-0.382;2023-08-31T09:08:35;8.18;;;4.00;;
30036;SDS011;36325;51.512;-0.382;2023-08-31T09:11:04;5.68;;;2.90;;
30036;SDS011;36325;51.512;-0.382;2023-08-31T09:13:32;9.15;;;3.55;;
30036;SDS011;36325;51.512;-0.382;2023-08-31T09:16:00;13.50;;;3.22;;
30036;SDS011;36325;51.512;-0.382;2023-08-31T09:18:30;6.97;;;3.40;;
30036;SDS011;36325;51.512;-0.382;2023-08-31T09:21:00;6.70;;;3.83;;
30036;SDS011;36325;51.512;-0.382;2023-08-31T09:23:28;11.32;;;3.22;;
30036;SDS011;36325;51.512;-0.382;2023-08-31T09:25:55;13.80;;;3.83;;
30036;SDS011;36325;51.512;-0.382;2023-08-31T09:28:24;5.45;;;2.88;;
30036;SDS011;36325;51.512;-0.382;2023-08-31T09:31:07;9.75;;;3.78;;
30036;SDS011;36325;51.512;-0.382;2023-08-31T09:33:36;12.77;;;3.72;;
30036;SDS011;36325;51.512;-0.382;2023-08-31T09:36:06;10.02;;;3.45;;
30036;SDS011;36325;51.512;-0.382;2023-08-31T09:38:44;7.47;;;3.88;;
30036;SDS011;36325;51.512;-0.382;2023-08-31T09:41:12;10.07;;;3.58;;
30036;SDS011;36325;51.512;-0.382;2023-08-31T09:43:40;12.90;;;3.72;;
30036;SDS011;36325;51.512;-0.382;2023-08-31T09:46:08;12.18;;;4.07;;
30036;SDS011;36325;51.512;-0.382;2023-08-31T09:48:38;14.48;;;4.03;;
30036;SDS011;36325;51.512;-0.382;2023-08-31T09:51:07;15.77;;;4.22;;
30036;SDS011;36325;51.512;-0.382;2023-08-31T09:53:41;10.20;;;3.25;;
30036;SDS011;36325;51.512;-0.382;2023-08-31T09:56:10;9.73;;;3.50;;
30036;SDS011;36325;51.512;-0.382;2023-08-31T09:58:43;11.52;;;3.67;;
30036;SDS011;36325;51.512;-0.382;2023-08-31T10:01:13;9.63;;;3.80;;
30036;SDS011;36325;51.512;-0.382;2023-08-31T10:03:53;11.07;;;3.17;;
30036;SDS011;36325;51.512;-0.382;2023-08-31T10:06:22;9.70;;;3.92;;
30036;SDS011;36325;51.512;-0.382;2023-08-31T10:08:49;7.28;;;2.55;;
30036;SDS011;36325;51.512;-0.382;2023-08-31T10:11:18;9.18;;;3.40;;
30036;SDS011;36325;51.512;-0.382;2023-08-31T10:13:46;11.15;;;3.72;;
30036;SDS011;36325;51.512;-0.382;2023-08-31T10:16:17;9.07;;;2.83;;
30036;SDS011;36325;51.512;-0.382;2023-08-31T10:18:46;6.10;;;2.80;;
30036;SDS011;36325;51.512;-0.382;2023-08-31T10:21:18;8.05;;;3.10;;
30036;SDS011;36325;51.512;-0.382;2023-08-31T10:26:24;8.55;;;2.85;;
30036;SDS011;36325;51.512;-0.382;2023-08-31T10:28:57;10.98;;;3.42;;
30036;SDS011;36325;51.512;-0.382;2023-08-31T10:31:31;9.07;;;2.83;;
30036;SDS011;36325;51.512;-0.382;2023-08-31T10:34:03;5.75;;;2.67;;
30036;SDS011;36325;51.512;-0.382;2023-08-31T10:36:40;5.88;;;2.50;;
30036;SDS011;36325;51.512;-0.382;2023-08-31T10:39:17;4.63;;;2.40;;
30036;SDS011;36325;51.512;-0.382;2023-08-31T10:41:52;3.30;;;1.90;;
30036;SDS011;36325;51.512;-0.382;2023-08-31T10:44:24;8.98;;;2.63;;
30036;SDS011;36325;51.512;-0.382;2023-08-31T10:46:53;5.40;;;2.05;;
30036;SDS011;36325;51.512;-0.382;2023-08-31T10:49:22;6.53;;;1.65;;
30036;SDS011;36325;51.512;-0.382;2023-08-31T10:51:54;4.40;;;1.70;;
30036;SDS011;36325;51.512;-0.382;2023-08-31T10:54:54;7.95;;;2.20;;
30036;SDS011;36325;51.512;-0.382;2023-08-31T10:57:31;16.13;;;2.58;;
30036;SDS011;36325;51.512;-0.382;2023-08-31T11:00:01;6.20;;;2.17;;
30036;SDS011;36325;51.512;-0.382;2023-08-31T11:07:42;8.63;;;1.65;;
30036;SDS011;36325;51.512;-0.382;2023-08-31T11:10:25;5.10;;;2.42;;
30036;SDS011;36325;51.512;-0.382;2023-08-31T11:12:56;5.25;;;2.45;;
30036;SDS011;36325;51.512;-0.382;2023-08-31T11:15:25;8.80;;;2.03;;
30036;SDS011;36325;51.512;-0.382;2023-08-31T11:17:54;7.80;;;2.53;;
30036;SDS011;36325;51.512;-0.382;2023-08-31T11:20:22;5.43;;;1.80;;
30036;SDS011;36325;51.512;-0.382;2023-08-31T11:22:56;5.07;;;1.70;;
30036;SDS011;36325;51.512;-0.382;2023-08-31T11:25:24;8.57;;;2.22;;
30036;SDS011;36325;51.512;-0.382;2023-08-31T11:27:53;4.45;;;1.80;;
30036;SDS011;36325;51.512;-0.382;2023-08-31T11:32:52;7.07;;;2.35;;
30036;SDS011;36325;51.512;-0.382;2023-08-31T11:35:22;7.00;;;1.77;;
30036;SDS011;36325;51.512;-0.382;2023-08-31T11:37:51;8.30;;;1.90;;
30036;SDS011;36325;51.512;-0.382;2023-08-31T11:40:23;9.65;;;2.72;;
30036;SDS011;36325;51.512;-0.382;2023-08-31T11:42:53;7.25;;;2.00;;
30036;SDS011;36325;51.512;-0.382;2023-08-31T11:45:34;5.80;;;1.60;;
30036;SDS011;36325;51.512;-0.382;2023-08-31T11:48:04;7.38;;;1.88;;
30036;SDS011;36325;51.512;-0.382;2023-08-31T11:50:32;7.32;;;1.80;;
30036;SDS011;36325;51.512;-0.382;2023-08-31T11:53:00;3.65;;;1.65;;
30036;SDS011;36325;51.512;-0.382;2023-08-31T11:55:28;4.72;;;1.63;;
30036;SDS011;36325;51.512;-0.382;2023-08-31T11:57:56;6.88;;;2.20;;
30036;SDS011;36325;51.512;-0.382;2023-08-31T12:00:28;5.95;;;1.45;;
30036;SDS011;36325;51.512;-0.382;2023-08-31T12:02:59;4.50;;;1.90;;
30036;SDS011;36325;51.512;-0.382;2023-08-31T12:05:28;5.85;;;2.15;;
30036;SDS011;36325;51.512;-0.382;2023-08-31T12:07:56;5.55;;;2.13;;
30036;SDS011;36325;51.512;-0.382;2023-08-31T12:10:24;7.95;;;1.90;;
30036;SDS011;36325;51.512;-0.382;2023-08-31T12:12:53;6.60;;;1.92;;
30036;SDS011;36325;51.512;-0.382;2023-08-31T12:15:36;7.97;;;1.85;;
30036;SDS011;36325;51.512;-0.382;2023-08-31T12:18:10;5.43;;;1.58;;
30036;SDS011;36325;51.512;-0.382;2023-08-31T12:20:52;3.08;;;1.52;;
30036;SDS011;36325;51.512;-0.382;2023-08-31T12:23:20;7.28;;;2.15;;
30036;SDS011;36325;51.512;-0.382;2023-08-31T12:25:49;6.47;;;2.00;;
30036;SDS011;36325;51.512;-0.382;2023-08-31T12:28:18;8.13;;;2.67;;
30036;SDS011;36325;51.512;-0.382;2023-08-31T12:30:50;6.43;;;1.73;;
30036;SDS011;36325;51.512;-0.382;2023-08-31T12:33:24;5.63;;;2.20;;
30036;SDS011;36325;51.512;-0.382;2023-08-31T12:35:52;4.18;;;1.63;;
30036;SDS011;36325;51.512;-0.382;2023-08-31T12:38:20;9.43;;;1.90;;
30036;SDS011;36325;51.512;-0.382;2023-08-31T12:40:48;4.40;;;2.13;;
30036;SDS011;36325;51.512;-0.382;2023-08-31T12:43:16;6.40;;;2.10;;
30036;SDS011;36325;51.512;-0.382;2023-08-31T12:45:44;6.40;;;2.10;;
30036;SDS011;36325;51.512;-0.382;2023-08-31T12:48:13;6.72;;;1.85;;
30036;SDS011;36325;51.512;-0.382;2023-08-31T12:50:40;9.35;;;2.40;;
30036;SDS011;36325;51.512;-0.382;2023-08-31T12:53:07;4.25;;;1.73;;
30036;SDS011;36325;51.512;-0.382;2023-08-31T12:55:34;5.07;;;1.70;;
30036;SDS011;36325;51.512;-0.382;2023-08-31T12:58:16;4.55;;;1.92;;
30036;SDS011;36325;51.512;-0.382;2023-08-31T13:00:45;6.60;;;2.35;;
30036;SDS011;36325;51.512;-0.382;2023-08-31T13:03:15;7.03;;;1.77;;
30036;SDS011;36325;51.512;-0.382;2023-08-31T13:05:42;8.07;;;2.58;;
30036;SDS011;36325;51.512;-0.382;2023-08-31T13:08:10;5.95;;;1.90;;
30036;SDS011;36325;51.512;-0.382;2023-08-31T13:10:39;4.68;;;1.90;;
30036;SDS011;36325;51.512;-0.382;2023-08-31T13:13:06;4.40;;;1.80;;
30036;SDS011;36325;51.512;-0.382;2023-08-31T13:15:35;6.75;;;2.10;;
30036;SDS011;36325;51.512;-0.382;2023-08-31T13:18:03;7.63;;;3.08;;
30036;SDS011;36325;51.512;-0.382;2023-08-31T13:20:31;8.45;;;2.67;;
30036;SDS011;36325;51.512;-0.382;2023-08-31T13:22:58;9.32;;;2.92;;
30036;SDS011;36325;51.512;-0.382;2023-08-31T13:25:26;14.05;;;3.13;;
30036;SDS011;36325;51.512;-0.382;2023-08-31T13:27:53;8.52;;;2.97;;
30036;SDS011;36325;51.512;-0.382;2023-08-31T13:30:20;6.88;;;2.70;;
30036;SDS011;36325;51.512;-0.382;2023-08-31T13:32:48;6.78;;;2.40;;
30036;SDS011;36325;51.512;-0.382;2023-08-31T13:35:15;9.35;;;2.53;;
30036;SDS011;36325;51.512;-0.382;2023-08-31T13:37:42;7.55;;;2.65;;
30036;SDS011;36325;51.512;-0.382;2023-08-31T13:40:10;11.65;;;2.55;;
30036;SDS011;36325;51.512;-0.382;2023-08-31T13:42:37;5.50;;;1.92;;
30036;SDS011;36325;51.512;-0.382;2023-08-31T13:45:20;7.35;;;1.77;;
30036;SDS011;36325;51.512;-0.382;2023-08-31T13:47:47;5.32;;;2.00;;
30036;SDS011;36325;51.512;-0.382;2023-08-31T13:50:16;7.03;;;2.20;;
30036;SDS011;36325;51.512;-0.382;2023-08-31T13:52:44;9.07;;;2.47;;
30036;SDS011;36325;51.512;-0.382;2023-08-31T13:55:11;12.20;;;3.35;;
30036;SDS011;36325;51.512;-0.382;2023-08-31T13:57:41;11.18;;;3.17;;
30036;SDS011;36325;51.512;-0.382;2023-08-31T14:00:09;6.45;;;1.65;;
30036;SDS011;36325;51.512;-0.382;2023-08-31T14:02:38;6.68;;;1.83;;
30036;SDS011;36325;51.512;-0.382;2023-08-31T14:05:07;5.97;;;2.17;;
30036;SDS011;36325;51.512;-0.382;2023-08-31T14:07:36;6.80;;;2.03;;
30036;SDS011;36325;51.512;-0.382;2023-08-31T14:10:04;1.63;;;1.08;;
30036;SDS011;36325;51.512;-0.382;2023-08-31T14:12:33;5.07;;;1.48;;
30036;SDS011;36325;51.512;-0.382;2023-08-31T14:15:01;8.13;;;2.25;;
30036;SDS011;36325;51.512;-0.382;2023-08-31T14:17:30;7.15;;;1.45;;
30036;SDS011;36325;51.512;-0.382;2023-08-31T14:19:59;5.72;;;1.98;;
30036;SDS011;36325;51.512;-0.382;2023-08-31T14:22:27;2.83;;;1.45;;
30036;SDS011;36325;51.512;-0.382;2023-08-31T14:24:55;6.18;;;1.98;;
30036;SDS011;36325;51.512;-0.382;2023-08-31T14:27:22;4.93;;;1.40;;
30036;SDS011;36325;51.512;-0.382;2023-08-31T14:29:50;7.63;;;1.92;;
30036;SDS011;36325;51.512;-0.382;2023-08-31T14:32:17;5.15;;;1.55;;
30036;SDS011;36325;51.512;-0.382;2023-08-31T14:34:46;4.85;;;1.40;;
30036;SDS011;36325;51.512;-0.382;2023-08-31T14:37:13;9.43;;;2.35;;
30036;SDS011;36325;51.512;-0.382;2023-08-31T14:39:42;6.82;;;2.47;;
30036;SDS011;36325;51.512;-0.382;2023-08-31T14:42:09;13.23;;;3.50;;
30036;SDS011;36325;51.512;-0.382;2023-08-31T14:44:38;33.35;;;5.65;;
30036;SDS011;36325;51.512;-0.382;2023-08-31T14:47:05;11.60;;;2.40;;
30036;SDS011;36325;51.512;-0.382;2023-08-31T14:49:34;5.57;;;1.80;;
30036;SDS011;36325;51.512;-0.382;2023-08-31T14:52:02;10.98;;;2.65;;
30036;SDS011;36325;51.512;-0.382;2023-08-31T14:54:32;6.80;;;2.15;;
30036;SDS011;36325;51.512;-0.382;2023-08-31T14:57:00;17.13;;;2.60;;